createdAt,value
2022-07-26T00:01:21.131Z,7.45
2022-07-26T00:03:49.254Z,6.93
2022-07-26T00:06:16.409Z,8.07
2022-07-26T00:08:47.080Z,7.95
2022-07-26T00:11:14.116Z,8.32
2022-07-26T00:13:40.706Z,8.07
2022-07-26T00:16:07.362Z,8.25
2022-07-26T00:18:33.935Z,7.82
2022-07-26T00:21:00.438Z,8.68
2022-07-26T00:23:27.793Z,8.23
2022-07-26T00:25:54.437Z,7.35
2022-07-26T00:28:21.115Z,6.60
2022-07-26T00:30:47.846Z,6.82
2022-07-26T00:33:14.385Z,6.90
2022-07-26T00:35:41.159Z,7.47
2022-07-26T00:38:07.948Z,7.43
2022-07-26T00:40:36.037Z,6.55
2022-07-26T00:43:02.694Z,6.78
2022-07-26T00:45:29.256Z,7.13
2022-07-26T00:47:55.906Z,7.07
2022-07-26T00:50:22.466Z,6.65
2022-07-26T00:52:50.200Z,7.03
2022-07-26T00:55:17.994Z,7.10
2022-07-26T00:57:44.740Z,8.15
2022-07-26T01:00:14.414Z,8.52
2022-07-26T01:02:40.977Z,8.68
2022-07-26T01:08:48.405Z,8.15
2022-07-26T01:11:14.869Z,9.57
2022-07-26T01:13:47.514Z,8.45
2022-07-26T01:16:14.297Z,9.13
2022-07-26T01:18:41.017Z,8.25
2022-07-26T01:21:13.240Z,8.25
2022-07-26T01:23:41.770Z,7.93
2022-07-26T01:26:08.553Z,8.40
2022-07-26T01:28:40.351Z,9.60
2022-07-26T01:31:08.036Z,8.25
2022-07-26T01:33:35.040Z,7.65
2022-07-26T01:36:01.806Z,8.18
2022-07-26T01:38:28.612Z,8.18
2022-07-26T01:40:55.218Z,8.45
2022-07-26T01:43:21.778Z,7.60
2022-07-26T01:45:48.518Z,7.25
2022-07-26T01:48:15.266Z,8.07
2022-07-26T01:50:42.288Z,7.53
2022-07-26T01:53:09.001Z,7.65
2022-07-26T01:55:36.088Z,7.95
2022-07-26T01:58:05.129Z,7.65
2022-07-26T02:00:32.192Z,7.32
2022-07-26T02:02:58.892Z,8.35
2022-07-26T02:05:25.556Z,7.03
2022-07-26T02:07:52.100Z,7.55
2022-07-26T02:10:18.995Z,7.40
2022-07-26T02:12:45.517Z,7.82
2022-07-26T02:15:13.778Z,8.00
2022-07-26T02:17:40.644Z,6.85
2022-07-26T02:20:08.373Z,8.05
2022-07-26T02:22:35.608Z,7.82
2022-07-26T02:25:05.210Z,7.22
2022-07-26T02:27:32.857Z,7.75
2022-07-26T02:29:59.428Z,7.78
2022-07-26T02:32:26.103Z,7.35
2022-07-26T02:34:52.603Z,7.22
2022-07-26T02:37:19.112Z,6.75
2022-07-26T02:39:45.625Z,7.13
2022-07-26T02:42:12.160Z,7.38
2022-07-26T02:44:38.690Z,7.38
2022-07-26T02:47:05.229Z,6.57
2022-07-26T02:49:31.837Z,7.35
2022-07-26T02:51:58.352Z,7.03
2022-07-26T02:54:24.838Z,7.53
2022-07-26T02:56:51.311Z,6.43
2022-07-26T02:59:17.834Z,7.53
2022-07-26T03:01:44.390Z,6.72
2022-07-26T03:04:11.315Z,7.22
2022-07-26T03:06:38.174Z,7.53
2022-07-26T03:09:04.880Z,6.60
2022-07-26T03:11:31.470Z,6.80
2022-07-26T03:13:57.952Z,7.07
2022-07-26T03:16:29.000Z,6.60
2022-07-26T03:21:22.468Z,7.18
2022-07-26T03:23:48.952Z,7.75
2022-07-26T03:26:15.612Z,7.63
2022-07-26T03:28:42.616Z,7.72
2022-07-26T03:31:09.302Z,7.10
2022-07-26T03:33:36.193Z,7.60
2022-07-26T03:36:03.220Z,7.35
2022-07-26T03:38:30.181Z,7.30
2022-07-26T03:40:56.707Z,7.53
2022-07-26T03:43:23.594Z,6.53
2022-07-26T03:45:50.896Z,6.93
2022-07-26T03:48:20.725Z,6.00
2022-07-26T03:50:47.289Z,6.10
2022-07-26T03:53:14.197Z,8.07
2022-07-26T03:55:59.344Z,7.43
2022-07-26T03:58:25.811Z,5.75
2022-07-26T04:00:52.327Z,5.60
2022-07-26T04:03:19.385Z,5.38
2022-07-26T04:05:48.925Z,5.03
2022-07-26T04:08:16.387Z,5.57
2022-07-26T04:10:47.995Z,4.88
2022-07-26T04:15:40.823Z,5.05
2022-07-26T04:18:07.347Z,5.53
2022-07-26T04:20:33.830Z,5.07
2022-07-26T04:23:00.377Z,4.55
2022-07-26T04:25:26.971Z,5.10
2022-07-26T04:28:05.549Z,4.80
2022-07-26T04:30:32.196Z,4.22
2022-07-26T04:32:58.792Z,4.90
2022-07-26T04:35:25.950Z,4.45
2022-07-26T04:37:52.467Z,5.07
2022-07-26T04:40:21.643Z,4.63
2022-07-26T04:42:51.634Z,4.32
2022-07-26T04:45:18.827Z,5.20
2022-07-26T04:47:50.264Z,3.92
2022-07-26T04:50:21.597Z,5.10
2022-07-26T04:52:49.228Z,4.28
2022-07-26T04:55:16.841Z,5.93
2022-07-26T04:57:43.791Z,4.53
2022-07-26T05:00:22.304Z,5.63
2022-07-26T05:02:51.627Z,4.68
2022-07-26T05:05:18.188Z,5.20
2022-07-26T05:07:46.761Z,4.70
2022-07-26T05:10:15.007Z,4.82
2022-07-26T05:12:41.670Z,4.72
2022-07-26T05:15:13.945Z,5.40
2022-07-26T05:17:42.757Z,6.00
2022-07-26T05:20:11.336Z,5.22
2022-07-26T05:22:38.479Z,4.85
2022-07-26T05:25:06.611Z,4.63
2022-07-26T05:27:33.108Z,4.82
2022-07-26T05:29:59.660Z,5.28
2022-07-26T05:32:28.050Z,4.43
2022-07-26T05:34:54.649Z,4.68
2022-07-26T05:37:21.297Z,4.35
2022-07-26T05:39:47.771Z,3.80
2022-07-26T05:42:14.223Z,4.35
2022-07-26T05:44:42.396Z,3.92
2022-07-26T05:47:09.731Z,4.60
2022-07-26T05:49:40.515Z,4.20
2022-07-26T05:52:08.260Z,3.33
2022-07-26T05:54:35.433Z,3.63
2022-07-26T05:57:02.419Z,4.20
2022-07-26T05:59:29.007Z,3.92
2022-07-26T06:01:56.647Z,7.03
2022-07-26T06:04:26.047Z,5.32
2022-07-26T06:06:54.641Z,4.13
2022-07-26T06:09:24.928Z,3.42
2022-07-26T06:11:51.891Z,3.15
2022-07-26T06:14:19.209Z,3.60
2022-07-26T06:16:48.921Z,2.75
2022-07-26T06:19:15.893Z,3.15
2022-07-26T06:21:42.750Z,3.33
2022-07-26T06:24:09.633Z,3.22
2022-07-26T06:26:36.735Z,3.17
2022-07-26T06:29:03.356Z,3.45
2022-07-26T06:31:29.884Z,3.47
2022-07-26T06:33:56.777Z,3.42
2022-07-26T06:36:26.150Z,3.28
2022-07-26T06:38:56.524Z,2.97
2022-07-26T06:41:23.257Z,2.30
2022-07-26T06:43:49.759Z,3.00
2022-07-26T06:46:16.994Z,2.97
2022-07-26T06:48:47.489Z,2.60
2022-07-26T06:51:19.376Z,2.70
2022-07-26T06:53:45.838Z,2.88
2022-07-26T06:56:14.844Z,2.80
2022-07-26T06:58:42.187Z,2.88
2022-07-26T07:01:08.686Z,2.70
2022-07-26T07:03:35.289Z,2.75
2022-07-26T07:06:01.847Z,2.53
2022-07-26T07:08:29.027Z,2.92
2022-07-26T07:10:56.751Z,2.65
2022-07-26T07:13:23.427Z,2.10
2022-07-26T07:15:49.994Z,2.50
2022-07-26T07:18:16.542Z,2.40
2022-07-26T07:20:43.021Z,1.90
2022-07-26T07:23:09.517Z,2.15
2022-07-26T07:25:36.024Z,2.92
2022-07-26T07:28:02.534Z,3.08
2022-07-26T07:30:29.176Z,2.35
2022-07-26T07:32:56.545Z,2.20
2022-07-26T07:35:23.591Z,2.65
2022-07-26T07:37:53.823Z,2.50
2022-07-26T07:40:21.351Z,2.37
2022-07-26T07:42:47.871Z,2.58
2022-07-26T07:45:14.937Z,2.35
2022-07-26T07:47:41.623Z,2.15
2022-07-26T07:50:08.727Z,2.08
2022-07-26T07:52:35.298Z,1.80
2022-07-26T07:55:36.431Z,2.50
2022-07-26T07:57:48.347Z,2.20
2022-07-26T08:00:16.776Z,2.15
2022-07-26T08:02:45.040Z,2.22
2022-07-26T08:05:15.397Z,2.50
2022-07-26T08:07:42.463Z,2.30
2022-07-26T08:10:09.301Z,2.42
2022-07-26T08:12:36.144Z,2.33
2022-07-26T08:15:07.259Z,2.45
2022-07-26T08:17:34.761Z,2.38
2022-07-26T08:20:05.080Z,1.80
2022-07-26T08:22:34.543Z,2.25
2022-07-26T08:25:00.985Z,2.38
2022-07-26T08:27:27.531Z,1.88
2022-07-26T08:29:54.120Z,1.70
2022-07-26T08:32:20.742Z,2.50
2022-07-26T08:34:47.348Z,1.88
2022-07-26T08:37:17.595Z,1.67
2022-07-26T08:39:46.716Z,1.67
2022-07-26T08:42:15.885Z,1.30
2022-07-26T08:44:47.214Z,1.65
2022-07-26T08:47:35.186Z,1.58
2022-07-26T08:50:06.867Z,1.60
2022-07-26T08:52:33.562Z,1.80
2022-07-26T08:55:00.031Z,1.40
2022-07-26T08:57:26.510Z,1.73
2022-07-26T09:00:25.570Z,1.33
2022-07-26T09:02:53.422Z,1.10
2022-07-26T09:05:25.991Z,1.77
2022-07-26T09:07:52.467Z,1.55
2022-07-26T09:10:19.013Z,1.90
2022-07-26T09:12:45.973Z,1.92
2022-07-26T09:15:26.805Z,1.48
2022-07-26T09:17:55.960Z,1.52
2022-07-26T09:20:28.097Z,1.58
2022-07-26T09:22:59.790Z,1.73
2022-07-26T09:25:28.077Z,1.40
2022-07-26T09:27:55.041Z,1.45
2022-07-26T09:30:22.625Z,1.50
2022-07-26T09:33:03.570Z,1.52
2022-07-26T09:35:50.557Z,1.73
2022-07-26T09:38:18.500Z,1.80
2022-07-26T09:40:46.770Z,1.67
2022-07-26T09:43:21.852Z,1.55
2022-07-26T09:46:03.081Z,1.60
2022-07-26T09:48:36.673Z,1.83
2022-07-26T09:51:14.117Z,1.60
2022-07-26T09:53:45.891Z,1.75
2022-07-26T09:56:13.498Z,1.85
2022-07-26T09:58:40.850Z,1.27
2022-07-26T10:01:07.997Z,1.50
2022-07-26T10:03:35.438Z,1.40
2022-07-26T10:06:03.605Z,1.27
2022-07-26T10:08:31.378Z,1.63
2022-07-26T10:11:06.194Z,1.20
2022-07-26T10:13:32.970Z,1.60
2022-07-26T10:15:59.602Z,1.48
2022-07-26T10:18:39.001Z,2.03
2022-07-26T10:21:18.698Z,1.40
2022-07-26T10:23:47.337Z,1.73
2022-07-26T10:26:33.838Z,1.73
2022-07-26T10:29:20.968Z,1.40
2022-07-26T10:32:01.133Z,1.15
2022-07-26T10:34:32.947Z,1.40
2022-07-26T10:37:05.426Z,1.60
2022-07-26T10:39:32.174Z,1.40
2022-07-26T10:42:01.383Z,1.75
2022-07-26T10:44:41.371Z,1.70
2022-07-26T10:47:07.828Z,1.45
2022-07-26T10:49:56.130Z,1.35
2022-07-26T10:52:26.269Z,1.50
2022-07-26T10:55:03.443Z,1.50
2022-07-26T10:57:32.141Z,2.10
2022-07-26T11:00:00.470Z,1.70
2022-07-26T11:02:32.617Z,1.60
2022-07-26T11:05:03.890Z,1.77
2022-07-26T11:07:31.707Z,1.90
2022-07-26T11:09:59.275Z,1.50
2022-07-26T11:12:26.177Z,1.30
2022-07-26T11:14:54.199Z,1.90
2022-07-26T11:17:28.824Z,1.50
2022-07-26T11:19:56.102Z,1.58
2022-07-26T11:22:32.266Z,1.70
2022-07-26T11:24:58.782Z,1.98
2022-07-26T11:27:25.348Z,1.48
2022-07-26T11:29:51.870Z,1.50
2022-07-26T11:32:23.112Z,1.65
2022-07-26T11:35:01.037Z,1.60
2022-07-26T11:37:27.827Z,2.00
2022-07-26T11:39:54.297Z,1.70
2022-07-26T11:42:22.003Z,1.90
2022-07-26T11:44:49.929Z,1.67
2022-07-26T11:47:19.595Z,1.85
2022-07-26T11:49:59.989Z,1.95
2022-07-26T11:52:31.755Z,1.67
2022-07-26T11:54:58.673Z,1.60
2022-07-26T11:57:30.666Z,1.80
2022-07-26T11:59:58.794Z,1.73
2022-07-26T12:02:26.171Z,2.05
2022-07-26T12:05:13.278Z,2.40
2022-07-26T12:07:52.248Z,1.35
2022-07-26T12:10:18.747Z,2.10
2022-07-26T12:12:45.264Z,2.00
2022-07-26T12:15:13.496Z,1.73
2022-07-26T12:17:58.466Z,2.30
2022-07-26T12:20:27.925Z,2.90
2022-07-26T12:23:04.933Z,2.17
2022-07-26T12:25:32.088Z,2.00
2022-07-26T12:27:58.799Z,1.90
2022-07-26T12:30:25.759Z,2.67
2022-07-26T12:33:02.075Z,1.48
2022-07-26T12:35:38.009Z,1.60
2022-07-26T12:38:04.684Z,2.15
2022-07-26T12:40:41.048Z,1.58
2022-07-26T12:43:08.646Z,1.70
2022-07-26T12:45:36.101Z,2.10
2022-07-26T12:48:10.092Z,2.47
2022-07-26T12:50:36.657Z,1.42
2022-07-26T12:53:08.818Z,1.58
2022-07-26T12:55:36.078Z,3.63
2022-07-26T12:58:02.786Z,3.72
2022-07-26T13:00:30.009Z,4.45
2022-07-26T13:02:57.730Z,1.50
2022-07-26T13:05:24.447Z,1.02
2022-07-26T13:07:55.435Z,1.50
2022-07-26T13:10:33.209Z,1.65
2022-07-26T13:13:00.455Z,1.55
2022-07-26T13:15:36.261Z,1.60
2022-07-26T13:18:06.746Z,1.13
2022-07-26T13:20:33.345Z,1.40
2022-07-26T13:22:59.853Z,1.20
2022-07-26T13:25:29.078Z,1.35
2022-07-26T13:28:05.059Z,1.20
2022-07-26T13:30:31.781Z,1.33
2022-07-26T13:32:58.309Z,1.25
2022-07-26T13:35:24.790Z,1.00
2022-07-26T13:37:51.234Z,1.30
2022-07-26T13:40:17.741Z,0.88
2022-07-26T13:42:44.261Z,1.00
2022-07-26T13:45:11.401Z,1.00
2022-07-26T13:47:37.932Z,1.00
2022-07-26T13:50:04.782Z,1.00
2022-07-26T13:52:33.701Z,1.35
2022-07-26T13:55:00.162Z,1.25
2022-07-26T13:57:49.501Z,1.40
2022-07-26T14:00:13.731Z,1.33
2022-07-26T14:02:40.343Z,0.77
2022-07-26T14:05:07.216Z,1.13
2022-07-26T14:07:33.811Z,1.15
2022-07-26T14:10:00.307Z,1.20
2022-07-26T14:12:26.809Z,1.20
2022-07-26T14:14:53.274Z,3.00
2022-07-26T14:17:19.770Z,4.45
2022-07-26T14:19:46.297Z,3.65
2022-07-26T14:22:13.468Z,2.70
2022-07-26T14:24:40.042Z,1.10
2022-07-26T14:27:06.563Z,1.33
2022-07-26T14:29:33.101Z,2.08
2022-07-26T14:32:02.390Z,1.35
2022-07-26T14:34:29.049Z,1.10
2022-07-26T14:36:55.660Z,1.10
2022-07-26T14:39:22.146Z,0.77
2022-07-26T14:41:48.660Z,1.00
2022-07-26T14:44:15.173Z,1.60
2022-07-26T14:46:43.814Z,2.42
2022-07-26T14:49:10.455Z,2.20
2022-07-26T14:51:37.134Z,1.60
2022-07-26T14:54:04.670Z,1.60
2022-07-26T14:56:31.362Z,2.78
2022-07-26T14:58:57.851Z,1.92
2022-07-26T15:01:24.447Z,1.35
2022-07-26T15:03:50.987Z,1.23
2022-07-26T15:06:17.530Z,1.52
2022-07-26T15:08:44.025Z,2.72
2022-07-26T15:11:10.632Z,1.65
2022-07-26T15:13:37.156Z,1.30
2022-07-26T15:16:03.941Z,1.30
2022-07-26T15:18:31.295Z,2.03
2022-07-26T15:20:57.962Z,1.02
2022-07-26T15:23:24.996Z,1.30
2022-07-26T15:25:51.512Z,1.83
2022-07-26T15:28:18.448Z,1.88
2022-07-26T15:30:45.124Z,1.77
2022-07-26T15:33:11.791Z,1.33
2022-07-26T15:35:40.558Z,1.58
2022-07-26T15:38:07.509Z,1.67
2022-07-26T15:40:34.023Z,1.20
2022-07-26T15:43:00.584Z,1.48
2022-07-26T15:45:28.083Z,1.05
2022-07-26T15:48:09.377Z,1.20
2022-07-26T15:50:44.564Z,0.98
2022-07-26T15:53:11.081Z,0.85
2022-07-26T15:55:37.562Z,1.85
2022-07-26T15:58:05.049Z,1.33
2022-07-26T16:00:31.681Z,0.73
2022-07-26T16:02:58.248Z,1.20
2022-07-26T16:05:24.859Z,1.38
2022-07-26T16:07:51.323Z,1.20
2022-07-26T16:10:17.976Z,1.20
2022-07-26T16:12:44.624Z,1.08
2022-07-26T16:15:11.960Z,1.00
2022-07-26T16:17:39.278Z,0.85
2022-07-26T16:20:07.017Z,0.80
2022-07-26T16:22:34.396Z,1.05
2022-07-26T16:25:01.113Z,0.70
2022-07-26T16:27:27.623Z,0.85
2022-07-26T16:29:54.278Z,1.10
2022-07-26T16:32:21.602Z,0.90
2022-07-26T16:34:48.362Z,0.95
2022-07-26T16:37:14.942Z,1.42
2022-07-26T16:39:41.436Z,1.20
2022-07-26T16:42:07.967Z,2.78
2022-07-26T16:44:36.111Z,4.45
2022-07-26T16:47:02.994Z,3.83
2022-07-26T16:49:29.677Z,1.33
2022-07-26T16:51:56.856Z,0.80
2022-07-26T16:54:23.440Z,1.20
2022-07-26T16:56:50.043Z,1.40
2022-07-26T16:59:17.307Z,0.90
2022-07-26T17:01:44.426Z,2.83
2022-07-26T17:04:10.997Z,0.90
2022-07-26T17:06:37.539Z,0.60
2022-07-26T17:09:04.275Z,1.00
2022-07-26T17:11:30.867Z,1.27
2022-07-26T17:13:57.442Z,0.90
2022-07-26T17:16:25.096Z,0.68
2022-07-26T17:18:53.297Z,0.80
2022-07-26T17:21:19.965Z,1.60
2022-07-26T17:23:46.586Z,1.38
2022-07-26T17:26:13.075Z,0.77
2022-07-26T17:28:39.575Z,1.30
2022-07-26T17:31:06.210Z,1.10
2022-07-26T17:33:32.869Z,0.88
2022-07-26T17:36:03.249Z,0.80
2022-07-26T17:38:31.097Z,0.60
2022-07-26T17:40:57.599Z,0.95
2022-07-26T17:43:25.206Z,1.10
2022-07-26T17:46:03.668Z,0.82
2022-07-26T17:48:30.346Z,0.80
2022-07-26T17:50:56.889Z,0.60
2022-07-26T17:53:31.719Z,0.70
2022-07-26T17:56:01.832Z,0.80
2022-07-26T17:58:28.413Z,0.82
2022-07-26T18:00:54.903Z,0.70
2022-07-26T18:03:22.264Z,0.95
2022-07-26T18:05:50.150Z,1.00
2022-07-26T18:08:16.877Z,0.80
2022-07-26T18:10:47.599Z,0.90
2022-07-26T18:13:17.695Z,2.00
2022-07-26T18:15:44.391Z,1.15
2022-07-26T18:18:11.000Z,0.70
2022-07-26T18:20:37.524Z,0.98
2022-07-26T18:23:04.121Z,1.02
2022-07-26T18:25:30.693Z,1.50
2022-07-26T18:27:57.248Z,2.60
2022-07-26T18:30:23.962Z,1.20
2022-07-26T18:32:50.582Z,1.90
2022-07-26T18:35:17.090Z,0.82
2022-07-26T18:37:43.589Z,1.08
2022-07-26T18:40:10.353Z,1.10
2022-07-26T18:42:37.855Z,1.00
2022-07-26T18:45:04.812Z,0.90
2022-07-26T18:47:31.393Z,0.98
2022-07-26T18:49:57.926Z,1.20
2022-07-26T18:52:31.667Z,0.80
2022-07-26T18:54:59.468Z,0.90
2022-07-26T18:57:25.932Z,1.15
2022-07-26T18:59:52.460Z,1.10
2022-07-26T19:02:19.092Z,1.45
2022-07-26T19:04:45.558Z,0.80
2022-07-26T19:07:12.067Z,1.23
2022-07-26T19:09:38.550Z,1.60
2022-07-26T19:12:05.159Z,1.10
2022-07-26T19:14:31.700Z,1.35
2022-07-26T19:16:58.273Z,1.10
2022-07-26T19:19:24.732Z,1.10
2022-07-26T19:21:51.203Z,1.13
2022-07-26T19:24:17.737Z,1.17
2022-07-26T19:26:44.269Z,1.17
2022-07-26T19:29:11.148Z,1.50
2022-07-26T19:31:40.246Z,1.35
2022-07-26T19:34:06.882Z,1.33
2022-07-26T19:36:33.490Z,0.90
2022-07-26T19:39:01.219Z,0.82
2022-07-26T19:41:27.882Z,1.00
2022-07-26T19:43:54.481Z,1.30
2022-07-26T19:46:21.098Z,1.10
2022-07-26T19:48:47.692Z,1.42
2022-07-26T19:51:14.267Z,1.50
2022-07-26T19:53:40.787Z,1.20
2022-07-26T19:56:07.865Z,1.20
2022-07-26T19:58:34.426Z,1.20
2022-07-26T20:01:01.095Z,1.52
2022-07-26T20:03:27.690Z,1.20
2022-07-26T20:05:55.633Z,1.55
2022-07-26T20:08:22.447Z,2.65
2022-07-26T20:10:48.984Z,1.65
2022-07-26T20:13:15.514Z,2.05
2022-07-26T20:15:42.729Z,0.98
2022-07-26T20:18:10.379Z,1.73
2022-07-26T20:20:36.997Z,1.58
2022-07-26T20:23:05.957Z,1.50
2022-07-26T20:25:32.725Z,1.88
2022-07-26T20:27:59.596Z,1.50
2022-07-26T20:30:26.293Z,1.27
2022-07-26T20:32:52.862Z,1.70
2022-07-26T20:35:19.436Z,1.65
2022-07-26T20:37:45.939Z,1.30
2022-07-26T20:40:13.390Z,1.55
2022-07-26T20:42:44.386Z,1.65
2022-07-26T20:45:12.894Z,1.65
2022-07-26T20:47:42.881Z,1.60
2022-07-26T20:50:10.637Z,1.65
2022-07-26T20:52:37.388Z,1.55
2022-07-26T20:55:04.487Z,1.23
2022-07-26T20:57:31.047Z,1.65
2022-07-26T20:59:57.544Z,1.77
2022-07-26T21:02:24.110Z,2.10
2022-07-26T21:04:50.702Z,1.50
2022-07-26T21:07:17.207Z,1.48
2022-07-26T21:09:43.701Z,2.25
2022-07-26T21:12:10.388Z,1.85
2022-07-26T21:14:36.900Z,1.40
2022-07-26T21:17:07.898Z,1.77
2022-07-26T21:19:37.624Z,1.88
2022-07-26T21:22:04.167Z,1.88
2022-07-26T21:24:30.749Z,1.50
2022-07-26T21:26:57.312Z,1.77
2022-07-26T21:29:23.895Z,1.70
2022-07-26T21:31:50.367Z,1.67
2022-07-26T21:34:16.976Z,1.63
2022-07-26T21:36:43.689Z,2.00
2022-07-26T21:39:10.766Z,1.90
2022-07-26T21:41:38.099Z,1.88
2022-07-26T21:44:05.097Z,1.50
2022-07-26T21:46:31.768Z,1.70
2022-07-26T21:48:58.441Z,1.80
2022-07-26T21:51:24.941Z,1.80
2022-07-26T21:53:51.457Z,1.77
2022-07-26T21:56:18.108Z,2.28
2022-07-26T21:58:44.566Z,2.05
2022-07-26T22:01:13.541Z,1.90
2022-07-26T22:03:41.801Z,1.67
2022-07-26T22:06:09.603Z,1.88
2022-07-26T22:08:36.532Z,1.52
2022-07-26T22:11:03.873Z,1.90
2022-07-26T22:13:30.966Z,1.52
2022-07-26T22:15:57.640Z,1.45
2022-07-26T22:18:24.233Z,1.85
2022-07-26T22:20:50.798Z,1.30
2022-07-26T22:23:18.818Z,1.55
2022-07-26T22:25:46.047Z,1.75
2022-07-26T22:28:18.348Z,1.60
2022-07-26T22:30:45.867Z,1.70
2022-07-26T22:33:12.425Z,2.00
2022-07-26T22:35:39.064Z,1.35
2022-07-26T22:38:08.333Z,1.73
2022-07-26T22:40:35.753Z,1.98
2022-07-26T22:43:02.365Z,1.30
2022-07-26T22:45:30.231Z,1.60
2022-07-26T22:47:57.486Z,1.67
2022-07-26T22:50:25.060Z,2.05
2022-07-26T22:52:52.242Z,1.73
2022-07-26T22:55:19.066Z,2.15
2022-07-26T22:57:45.636Z,1.50
2022-07-26T23:00:14.111Z,1.60
2022-07-26T23:02:41.008Z,1.50
2022-07-26T23:05:08.612Z,1.48
2022-07-26T23:07:35.446Z,1.65
2022-07-26T23:10:02.904Z,1.60
2022-07-26T23:12:29.436Z,1.48
2022-07-26T23:14:55.925Z,1.48
2022-07-26T23:17:22.470Z,1.63
2022-07-26T23:19:48.962Z,1.30
2022-07-26T23:22:15.506Z,2.00
2022-07-26T23:24:43.528Z,1.42
2022-07-26T23:27:10.482Z,2.25
2022-07-26T23:29:37.201Z,1.30
2022-07-26T23:32:03.917Z,2.00
2022-07-26T23:34:30.547Z,1.60
2022-07-26T23:36:57.003Z,1.67
2022-07-26T23:39:23.502Z,1.92
2022-07-26T23:41:49.966Z,1.40
2022-07-26T23:44:17.246Z,1.83
2022-07-26T23:46:43.783Z,1.45
2022-07-26T23:49:10.886Z,1.50
2022-07-26T23:51:38.886Z,1.63
2022-07-26T23:54:05.827Z,1.40
2022-07-26T23:56:32.332Z,1.63
2022-07-26T23:58:58.785Z,2.17
